createdAt,value
2022-08-26T00:01:02.171Z,21.53
2022-08-26T00:05:10.746Z,21.50
2022-08-26T00:09:18.331Z,21.48
2022-08-26T00:13:26.405Z,21.47
2022-08-26T00:17:34.342Z,21.46
2022-08-26T00:21:42.511Z,21.42
2022-08-26T00:25:50.465Z,21.39
2022-08-26T00:29:58.258Z,21.36
2022-08-26T00:34:06.063Z,21.32
2022-08-26T00:38:14.326Z,21.27
2022-08-26T00:42:23.718Z,21.25
2022-08-26T00:46:33.536Z,21.24
2022-08-26T00:50:43.673Z,21.27
2022-08-26T00:54:55.992Z,21.25
2022-08-26T00:59:07.568Z,21.21
2022-08-26T01:03:15.809Z,21.17
2022-08-26T01:07:23.422Z,21.18
2022-08-26T01:11:31.267Z,21.15
2022-08-26T01:15:44.495Z,21.16
2022-08-26T01:19:53.924Z,21.17
2022-08-26T01:24:02.107Z,21.15
2022-08-26T01:28:14.478Z,21.13
2022-08-26T01:32:25.949Z,21.12
2022-08-26T01:36:35.227Z,21.11
2022-08-26T01:40:44.501Z,21.13
2022-08-26T01:44:56.087Z,21.17
2022-08-26T01:49:06.892Z,21.20
2022-08-26T01:53:21.409Z,21.21
2022-08-26T01:57:32.210Z,21.18
2022-08-26T02:01:40.247Z,21.15
2022-08-26T02:05:51.467Z,21.12
2022-08-26T02:09:59.772Z,21.12
2022-08-26T02:14:13.112Z,21.13
2022-08-26T02:18:21.309Z,21.13
2022-08-26T02:22:31.995Z,21.12
2022-08-26T02:26:41.806Z,21.13
2022-08-26T02:30:50.497Z,21.14
2022-08-26T02:34:58.665Z,21.15
2022-08-26T02:39:06.784Z,21.12
2022-08-26T02:43:14.856Z,21.07
2022-08-26T02:47:24.905Z,21.04
2022-08-26T02:51:32.572Z,21.03
2022-08-26T02:55:42.512Z,21.05
2022-08-26T02:59:51.041Z,21.08
2022-08-26T03:03:59.608Z,21.09
2022-08-26T03:08:07.228Z,21.03
2022-08-26T03:12:15.068Z,20.92
2022-08-26T03:16:23.171Z,20.89
2022-08-26T03:20:31.900Z,20.89
2022-08-26T03:24:40.257Z,20.89
2022-08-26T03:29:05.584Z,20.89
2022-08-26T03:33:14.350Z,20.88
2022-08-26T03:37:22.415Z,20.86
2022-08-26T03:41:33.142Z,20.84
2022-08-26T03:45:41.260Z,20.86
2022-08-26T03:49:50.711Z,20.84
2022-08-26T03:54:01.078Z,20.79
2022-08-26T03:58:10.330Z,20.78
2022-08-26T04:02:19.520Z,20.80
2022-08-26T04:06:29.743Z,20.79
2022-08-26T04:10:40.591Z,20.80
2022-08-26T04:14:48.663Z,20.81
2022-08-26T04:18:57.526Z,20.81
2022-08-26T04:23:05.831Z,20.74
2022-08-26T04:27:15.241Z,20.70
2022-08-26T04:31:26.519Z,20.67
2022-08-26T04:35:38.725Z,20.63
2022-08-26T04:39:54.361Z,20.57
2022-08-26T04:44:09.902Z,20.52
2022-08-26T04:48:18.146Z,20.53
2022-08-26T04:52:25.918Z,20.57
2022-08-26T04:56:38.477Z,20.61
2022-08-26T05:00:49.226Z,20.62
2022-08-26T05:04:57.297Z,20.68
2022-08-26T05:09:05.200Z,20.72
2022-08-26T05:13:15.544Z,20.71
2022-08-26T05:17:23.828Z,20.66
2022-08-26T05:21:31.586Z,20.65
2022-08-26T05:25:42.164Z,20.70
2022-08-26T05:29:54.353Z,20.73
2022-08-26T05:34:05.053Z,20.70
2022-08-26T05:38:15.815Z,20.73
2022-08-26T05:42:25.416Z,20.77
2022-08-26T05:46:33.217Z,20.82
2022-08-26T05:50:47.794Z,20.89
2022-08-26T05:54:55.741Z,20.94
2022-08-26T05:59:03.709Z,20.96
2022-08-26T06:03:14.615Z,21.01
2022-08-26T06:07:43.772Z,21.08
2022-08-26T06:11:51.607Z,21.18
2022-08-26T06:16:00.563Z,21.26
2022-08-26T06:20:09.807Z,21.31
2022-08-26T06:24:35.307Z,21.31
2022-08-26T06:28:45.490Z,21.24
2022-08-26T06:32:53.502Z,21.26
2022-08-26T06:37:03.757Z,21.35
2022-08-26T06:41:12.097Z,21.44
2022-08-26T06:45:20.027Z,21.47
2022-08-26T06:49:28.128Z,21.52
2022-08-26T06:53:37.002Z,21.54
2022-08-26T06:57:44.888Z,21.63
2022-08-26T07:01:55.227Z,21.75
2022-08-26T07:06:07.385Z,21.82
2022-08-26T07:10:15.782Z,21.87
2022-08-26T07:14:26.179Z,21.90
2022-08-26T07:18:34.019Z,21.94
2022-08-26T07:22:42.563Z,22.05
2022-08-26T07:26:50.536Z,22.08
2022-08-26T07:31:00.747Z,22.20
2022-08-26T07:35:09.928Z,22.30
2022-08-26T07:39:17.514Z,22.39
2022-08-26T07:43:25.268Z,22.42
2022-08-26T07:47:33.429Z,22.41
2022-08-26T07:51:42.389Z,22.51
2022-08-26T07:55:50.138Z,22.61
2022-08-26T07:59:58.505Z,22.76
2022-08-26T08:04:09.066Z,22.95
2022-08-26T08:08:27.652Z,23.11
2022-08-26T08:12:37.347Z,23.25
2022-08-26T08:16:47.021Z,23.32
2022-08-26T08:21:21.081Z,23.40
2022-08-26T08:25:30.917Z,23.53
2022-08-26T08:29:39.648Z,23.75
2022-08-26T08:33:48.894Z,23.84
2022-08-26T08:38:00.129Z,23.94
2022-08-26T08:42:35.862Z,24.09
2022-08-26T08:46:44.875Z,24.17
2022-08-26T08:50:54.036Z,24.05
2022-08-26T08:55:02.257Z,24.10
2022-08-26T08:59:16.462Z,24.27
2022-08-26T09:03:42.847Z,24.37
2022-08-26T09:07:53.824Z,24.50
2022-08-26T09:12:04.386Z,24.72
2022-08-26T09:16:15.404Z,24.79
2022-08-26T09:20:37.381Z,24.80
2022-08-26T09:24:48.482Z,24.91
2022-08-26T09:29:00.915Z,25.03
2022-08-26T09:33:11.357Z,25.09
2022-08-26T09:37:40.157Z,25.18
2022-08-26T09:42:07.172Z,25.39
2022-08-26T09:46:19.100Z,25.60
2022-08-26T09:50:30.436Z,25.76
2022-08-26T09:54:39.288Z,25.88
2022-08-26T09:58:49.250Z,26.02
2022-08-26T10:03:08.220Z,26.14
2022-08-26T10:07:16.621Z,26.30
2022-08-26T10:11:31.381Z,26.43
2022-08-26T10:15:50.005Z,26.56
2022-08-26T10:20:01.580Z,26.69
2022-08-26T10:24:11.994Z,26.80
2022-08-26T10:28:27.402Z,26.92
2022-08-26T10:32:41.502Z,27.04
2022-08-26T10:37:16.157Z,27.15
2022-08-26T10:41:25.907Z,27.25
2022-08-26T10:45:38.568Z,27.33
2022-08-26T10:49:47.263Z,27.43
2022-08-26T10:53:58.902Z,27.53
2022-08-26T10:58:26.396Z,27.63
2022-08-26T11:02:40.612Z,27.70
2022-08-26T11:07:35.952Z,27.76
2022-08-26T11:11:53.777Z,27.83
2022-08-26T11:16:02.671Z,27.93
2022-08-26T11:20:14.154Z,28.02
2022-08-26T11:24:47.638Z,28.10
2022-08-26T11:28:56.201Z,28.23
2022-08-26T11:33:03.827Z,28.33
2022-08-26T11:41:32.001Z,28.49
2022-08-26T11:45:42.200Z,28.64
2022-08-26T11:49:49.950Z,28.73
2022-08-26T11:54:12.873Z,28.84
2022-08-26T11:58:21.349Z,28.91
2022-08-26T12:02:30.886Z,29.00
2022-08-26T12:06:45.696Z,29.08
2022-08-26T12:11:06.922Z,29.12
2022-08-26T12:15:19.333Z,29.22
2022-08-26T12:19:33.016Z,29.33
2022-08-26T12:23:48.529Z,29.44
2022-08-26T12:28:09.583Z,29.55
2022-08-26T12:32:32.250Z,29.68
2022-08-26T12:36:49.278Z,29.78
2022-08-26T12:41:10.658Z,29.87
2022-08-26T12:45:33.535Z,29.97
2022-08-26T12:49:50.451Z,30.01
2022-08-26T12:53:59.427Z,30.11
2022-08-26T12:58:29.752Z,30.17
2022-08-26T13:02:41.449Z,30.18
2022-08-26T13:06:49.418Z,30.37
2022-08-26T13:11:10.669Z,30.57
2022-08-26T13:15:18.167Z,30.74
2022-08-26T13:19:27.418Z,30.85
2022-08-26T13:23:38.386Z,30.93
2022-08-26T13:27:49.296Z,31.00
2022-08-26T13:31:58.014Z,31.05
2022-08-26T13:36:09.250Z,31.11
2022-08-26T13:40:17.889Z,31.17
2022-08-26T13:44:25.677Z,31.22
2022-08-26T13:48:34.164Z,31.24
2022-08-26T13:52:41.440Z,31.28
2022-08-26T13:56:49.320Z,31.37
2022-08-26T14:00:58.212Z,31.44
2022-08-26T14:05:06.330Z,31.42
2022-08-26T14:09:14.161Z,31.41
2022-08-26T14:13:22.657Z,31.43
2022-08-26T14:17:32.621Z,31.43
2022-08-26T14:21:41.034Z,31.45
2022-08-26T14:25:49.046Z,31.45
2022-08-26T14:29:57.414Z,31.47
2022-08-26T14:34:09.775Z,31.41
2022-08-26T14:38:17.993Z,31.33
2022-08-26T14:42:31.507Z,31.27
2022-08-26T14:46:43.993Z,31.30
2022-08-26T14:50:52.103Z,31.40
2022-08-26T14:55:02.931Z,31.40
2022-08-26T14:59:12.120Z,31.29
2022-08-26T15:03:21.250Z,31.24
2022-08-26T15:07:31.409Z,31.16
2022-08-26T15:11:39.820Z,31.07
2022-08-26T15:15:48.511Z,30.97
2022-08-26T15:19:56.211Z,30.93
2022-08-26T15:24:04.619Z,30.92
2022-08-26T15:28:12.489Z,30.92
2022-08-26T15:32:20.144Z,30.86
2022-08-26T15:36:30.461Z,30.79
2022-08-26T15:40:40.462Z,30.67
2022-08-26T15:44:50.528Z,30.61
2022-08-26T15:48:58.622Z,30.53
2022-08-26T15:53:08.145Z,30.47
2022-08-26T15:57:18.701Z,30.40
2022-08-26T16:01:29.104Z,30.33
2022-08-26T16:05:39.665Z,30.26
2022-08-26T16:09:49.202Z,30.21
2022-08-26T16:14:01.788Z,30.12
2022-08-26T16:18:11.670Z,30.02
2022-08-26T16:22:19.825Z,29.92
2022-08-26T16:26:29.965Z,29.80
2022-08-26T16:30:38.061Z,29.67
2022-08-26T16:34:56.410Z,29.56
2022-08-26T16:39:05.466Z,29.46
2022-08-26T16:43:15.206Z,29.39
2022-08-26T16:47:23.579Z,29.27
2022-08-26T16:51:32.764Z,29.13
2022-08-26T16:55:49.951Z,28.96
2022-08-26T16:59:57.917Z,28.78
2022-08-26T17:04:06.492Z,28.60
2022-08-26T17:08:21.846Z,28.38
2022-08-26T17:12:38.552Z,28.18
2022-08-26T17:16:47.320Z,28.03
2022-08-26T17:20:56.743Z,27.89
2022-08-26T17:25:05.809Z,27.75
2022-08-26T17:29:14.070Z,27.58
2022-08-26T17:33:24.421Z,27.42
2022-08-26T17:37:34.843Z,27.25
2022-08-26T17:41:45.228Z,27.04
2022-08-26T17:45:53.030Z,26.79
2022-08-26T17:50:01.729Z,26.56
2022-08-26T17:54:09.508Z,26.31
2022-08-26T17:58:17.347Z,26.05
2022-08-26T18:02:25.787Z,25.82
2022-08-26T18:06:33.972Z,25.61
2022-08-26T18:10:41.565Z,25.41
2022-08-26T18:14:51.195Z,25.27
2022-08-26T18:19:00.361Z,25.10
2022-08-26T18:23:09.913Z,24.98
2022-08-26T18:27:18.252Z,24.85
2022-08-26T18:31:27.027Z,24.71
2022-08-26T18:35:35.267Z,24.56
2022-08-26T18:39:43.308Z,24.45
2022-08-26T18:43:51.842Z,24.36
2022-08-26T18:48:00.078Z,24.28
2022-08-26T18:52:08.286Z,24.21
2022-08-26T18:56:18.482Z,24.14
2022-08-26T19:00:26.573Z,23.97
2022-08-26T19:04:34.846Z,23.88
2022-08-26T19:08:44.540Z,23.86
2022-08-26T19:12:54.516Z,23.82
2022-08-26T19:17:05.891Z,23.77
2022-08-26T19:21:13.504Z,23.72
2022-08-26T19:25:22.922Z,23.61
2022-08-26T19:29:35.292Z,23.45
2022-08-26T19:33:45.591Z,23.30
2022-08-26T19:37:53.104Z,23.19
2022-08-26T19:42:01.103Z,23.10
2022-08-26T19:46:14.812Z,23.03
2022-08-26T19:50:22.896Z,22.93
2022-08-26T19:54:31.275Z,22.83
2022-08-26T19:58:40.761Z,22.77
2022-08-26T20:02:48.960Z,22.71
2022-08-26T20:06:57.771Z,22.65
2022-08-26T20:11:09.296Z,22.57
2022-08-26T20:15:18.242Z,22.44
2022-08-26T20:19:43.532Z,22.31
2022-08-26T20:23:52.596Z,22.26
2022-08-26T20:28:01.814Z,22.19
2022-08-26T20:32:12.382Z,22.13
2022-08-26T20:36:21.618Z,22.11
2022-08-26T20:40:29.441Z,22.14
2022-08-26T20:44:38.052Z,22.17
2022-08-26T20:48:51.199Z,22.14
2022-08-26T20:52:59.602Z,22.10
2022-08-26T20:57:07.776Z,22.09
2022-08-26T21:01:22.821Z,22.08
2022-08-26T21:05:32.309Z,21.98
2022-08-26T21:09:40.241Z,21.88
2022-08-26T21:14:06.969Z,21.81
2022-08-26T21:18:18.973Z,21.79
2022-08-26T21:22:27.193Z,21.73
2022-08-26T21:26:35.278Z,21.66
2022-08-26T21:30:43.576Z,21.58
2022-08-26T21:34:51.391Z,21.44
2022-08-26T21:39:00.239Z,21.38
2022-08-26T21:43:09.009Z,21.33
2022-08-26T21:47:22.367Z,21.21
2022-08-26T21:51:32.430Z,21.08
2022-08-26T21:55:42.687Z,21.04
2022-08-26T21:59:50.632Z,21.01
2022-08-26T22:03:58.782Z,20.95
2022-08-26T22:08:06.979Z,20.93
2022-08-26T22:12:18.312Z,20.93
2022-08-26T22:16:28.803Z,20.94
2022-08-26T22:20:38.456Z,20.92
2022-08-26T22:24:47.363Z,20.88
2022-08-26T22:28:58.760Z,20.84
2022-08-26T22:33:08.552Z,20.79
2022-08-26T22:37:17.115Z,20.70
2022-08-26T22:41:25.055Z,20.62
2022-08-26T22:45:33.840Z,20.56
2022-08-26T22:49:42.114Z,20.47
2022-08-26T22:53:50.182Z,20.34
2022-08-26T22:57:58.397Z,20.18
2022-08-26T23:02:06.582Z,20.15
2022-08-26T23:06:16.929Z,20.17
2022-08-26T23:10:25.506Z,20.14
2022-08-26T23:14:35.508Z,20.06
2022-08-26T23:18:43.596Z,20.01
2022-08-26T23:22:51.629Z,19.99
2022-08-26T23:26:59.284Z,19.98
2022-08-26T23:31:07.949Z,19.98
2022-08-26T23:35:22.280Z,19.97
2022-08-26T23:39:30.059Z,19.98
2022-08-26T23:43:38.102Z,19.96
2022-08-26T23:47:47.659Z,19.92
2022-08-26T23:52:13.306Z,19.87
2022-08-26T23:56:21.490Z,19.85
